createdAt,value
2019-05-22T00:00:52.898Z,99.90
2019-05-22T00:03:27.620Z,99.90
2019-05-22T00:05:58.368Z,99.90
2019-05-22T00:08:29.018Z,99.90
2019-05-22T00:11:02.185Z,99.90
2019-05-22T00:18:35.467Z,99.90
2019-05-22T00:21:07.528Z,99.90
2019-05-22T00:23:38.817Z,99.90
2019-05-22T00:26:11.290Z,99.90
2019-05-22T00:28:43.256Z,99.90
2019-05-22T00:31:16.358Z,99.90
2019-05-22T00:33:47.794Z,99.90
2019-05-22T00:36:19.552Z,99.90
2019-05-22T00:38:50.901Z,99.90
2019-05-22T00:41:23.786Z,99.90
2019-05-22T00:43:57.028Z,99.90
2019-05-22T00:46:28.607Z,99.90
2019-05-22T00:48:59.982Z,99.90
2019-05-22T00:51:46.341Z,99.90
2019-05-22T00:54:33.811Z,99.90
2019-05-22T00:59:59.550Z,99.90
2019-05-22T01:02:30.812Z,99.90
2019-05-22T01:05:02.718Z,99.90
2019-05-22T01:07:39.668Z,99.90
2019-05-22T01:10:12.368Z,99.90
2019-05-22T01:12:46.634Z,99.90
2019-05-22T01:15:20.870Z,99.90
2019-05-22T01:17:51.565Z,99.90
2019-05-22T01:20:24.482Z,99.90
2019-05-22T01:22:57.574Z,99.90
2019-05-22T01:25:29.166Z,99.90
2019-05-22T01:28:00.497Z,99.90
2019-05-22T01:30:40.513Z,99.90
2019-05-22T01:33:14.317Z,99.90
2019-05-22T01:35:53.553Z,99.90
2019-05-22T01:38:25.911Z,99.90
2019-05-22T01:40:59.525Z,99.90
2019-05-22T01:43:32.090Z,99.90
2019-05-22T01:46:03.510Z,99.90
2019-05-22T01:48:38.508Z,99.90
2019-05-22T01:51:11.975Z,99.90
2019-05-22T01:53:43.944Z,99.90
2019-05-22T01:56:17.112Z,99.90
2019-05-22T01:58:47.671Z,99.90
2019-05-22T02:01:22.090Z,99.90
2019-05-22T02:04:00.150Z,99.90
2019-05-22T02:06:31.012Z,99.90
2019-05-22T02:09:27.375Z,99.90
2019-05-22T02:12:08.173Z,99.90
2019-05-22T02:14:59.096Z,99.90
2019-05-22T02:17:33.321Z,99.90
2019-05-22T02:20:07.762Z,99.90
2019-05-22T02:22:42.432Z,99.90
2019-05-22T02:25:13.048Z,99.90
2019-05-22T02:27:44.236Z,99.90
2019-05-22T02:30:15.817Z,99.90
2019-05-22T02:32:48.624Z,99.90
2019-05-22T02:35:19.563Z,99.90
2019-05-22T02:37:50.576Z,99.90
2019-05-22T02:40:28.510Z,99.90
2019-05-22T02:43:00.059Z,99.90
2019-05-22T02:45:32.333Z,99.90
2019-05-22T02:48:06.572Z,99.90
2019-05-22T02:50:37.838Z,99.90
2019-05-22T02:53:11.421Z,99.90
2019-05-22T02:55:42.433Z,99.90
2019-05-22T02:58:13.631Z,99.90
2019-05-22T03:01:05.305Z,99.90
2019-05-22T03:06:12.406Z,99.90
2019-05-22T03:09:10.378Z,99.90
2019-05-22T03:11:43.937Z,99.90
2019-05-22T03:14:15.806Z,99.90
2019-05-22T03:16:56.526Z,99.90
2019-05-22T03:19:42.998Z,99.90
2019-05-22T03:22:24.401Z,99.90
2019-05-22T03:24:57.139Z,99.90
2019-05-22T03:27:49.427Z,99.90
2019-05-22T03:30:42.553Z,99.90
2019-05-22T03:33:13.562Z,99.90
2019-05-22T03:35:47.927Z,99.90
2019-05-22T03:38:20.570Z,99.90
2019-05-22T03:40:53.312Z,99.90
2019-05-22T03:43:25.462Z,99.90
2019-05-22T03:45:59.065Z,99.90
2019-05-22T03:48:35.140Z,99.90
2019-05-22T03:51:12.718Z,99.90
2019-05-22T03:58:46.454Z,99.90
2019-05-22T04:01:17.812Z,99.90
2019-05-22T04:03:48.541Z,99.90
2019-05-22T04:06:20.822Z,99.90
2019-05-22T04:08:52.197Z,99.90
2019-05-22T04:11:25.850Z,99.90
2019-05-22T04:13:57.209Z,99.90
2019-05-22T04:16:28.847Z,99.90
2019-05-22T04:18:59.895Z,99.90
2019-05-22T04:21:32.529Z,99.90
2019-05-22T04:24:03.321Z,99.90
2019-05-22T04:26:34.570Z,99.90
2019-05-22T04:29:05.403Z,99.90
2019-05-22T04:31:53.444Z,99.90
2019-05-22T04:34:24.055Z,99.90
2019-05-22T04:36:55.495Z,99.90
2019-05-22T04:39:27.513Z,99.90
2019-05-22T04:41:59.138Z,99.90
2019-05-22T04:44:29.975Z,99.90
2019-05-22T04:47:01.534Z,99.90
2019-05-22T04:49:32.533Z,99.90
2019-05-22T04:52:04.298Z,99.90
2019-05-22T04:54:34.765Z,99.90
2019-05-22T04:57:06.882Z,99.90
2019-05-22T04:59:39.261Z,99.90
2019-05-22T05:02:10.435Z,99.90
2019-05-22T05:04:41.375Z,99.90
2019-05-22T05:07:12.322Z,99.90
2019-05-22T05:09:44.831Z,99.90
2019-05-22T05:12:15.422Z,99.90
2019-05-22T05:14:45.856Z,99.90
2019-05-22T05:17:16.483Z,99.90
2019-05-22T05:19:47.190Z,99.90
2019-05-22T05:22:21.847Z,99.90
2019-05-22T05:24:55.576Z,99.90
2019-05-22T05:27:24.851Z,99.90
2019-05-22T05:29:55.277Z,99.90
2019-05-22T05:32:26.364Z,99.90
2019-05-22T05:35:05.938Z,99.90
2019-05-22T05:37:36.702Z,99.90
2019-05-22T05:40:29.438Z,99.90
2019-05-22T05:43:00.698Z,99.90
2019-05-22T05:45:32.759Z,99.90
2019-05-22T05:48:05.759Z,99.90
2019-05-22T05:50:40.010Z,99.90
2019-05-22T05:53:16.594Z,99.90
2019-05-22T05:56:18.572Z,99.90
2019-05-22T05:58:49.647Z,99.90
2019-05-22T06:01:45.057Z,99.90
2019-05-22T06:04:17.459Z,99.90
2019-05-22T06:07:26.672Z,99.90
2019-05-22T06:10:40.886Z,99.90
2019-05-22T06:13:12.988Z,99.90
2019-05-22T06:16:31.299Z,99.90
2019-05-22T06:19:02.789Z,99.90
2019-05-22T06:21:33.521Z,99.90
2019-05-22T06:24:25.447Z,99.90
2019-05-22T06:27:29.365Z,99.90
2019-05-22T06:30:06.668Z,99.90
2019-05-22T06:35:32.392Z,99.90
2019-05-22T06:38:24.529Z,99.90
2019-05-22T06:56:38.219Z,99.90
2019-05-22T07:11:41.315Z,99.90
2019-05-22T07:14:12.054Z,99.90
2019-05-22T07:19:12.935Z,99.90
2019-05-22T07:21:43.735Z,99.90
2019-05-22T07:24:14.299Z,99.90
2019-05-22T07:26:45.876Z,99.90
2019-05-22T07:29:17.979Z,99.90
2019-05-22T07:31:48.555Z,99.90
2019-05-22T07:34:19.758Z,99.90
2019-05-22T07:36:50.267Z,99.90
2019-05-22T07:39:21.983Z,99.90
2019-05-22T07:41:52.714Z,99.90
2019-05-22T07:44:23.291Z,99.90
2019-05-22T07:46:54.151Z,99.90
2019-05-22T07:49:24.612Z,99.90
2019-05-22T07:52:01.182Z,99.90
2019-05-22T07:54:28.127Z,99.90
2019-05-22T07:56:59.674Z,99.90
2019-05-22T07:59:30.107Z,99.90
2019-05-22T08:02:03.450Z,99.90
2019-05-22T08:04:34.838Z,99.10
2019-05-22T08:07:07.354Z,97.90
2019-05-22T08:09:38.055Z,95.30
2019-05-22T08:12:11.712Z,94.70
2019-05-22T08:14:42.751Z,93.00
2019-05-22T08:17:13.614Z,93.40
2019-05-22T08:19:44.279Z,87.50
2019-05-22T08:22:15.408Z,83.40
2019-05-22T08:24:45.948Z,84.90
2019-05-22T08:27:18.808Z,85.90
2019-05-22T08:29:49.363Z,81.50
2019-05-22T08:32:20.627Z,83.20
2019-05-22T08:34:51.185Z,79.40
2019-05-22T08:37:25.914Z,72.10
2019-05-22T08:39:56.805Z,66.30
2019-05-22T08:42:28.153Z,61.40
2019-05-22T08:44:59.213Z,54.40
2019-05-22T08:47:31.876Z,53.10
2019-05-22T08:50:03.425Z,51.00
2019-05-22T08:52:33.854Z,50.70
2019-05-22T08:55:06.010Z,49.30
2019-05-22T08:57:37.166Z,52.50
2019-05-22T09:00:12.381Z,56.20
2019-05-22T09:02:41.872Z,53.50
2019-05-22T09:05:12.952Z,53.50
2019-05-22T09:07:45.597Z,52.50
2019-05-22T09:10:19.390Z,53.70
2019-05-22T09:12:50.202Z,50.80
2019-05-22T09:15:20.968Z,49.60
2019-05-22T09:17:51.745Z,49.80
2019-05-22T09:20:24.117Z,51.10
2019-05-22T09:22:54.960Z,51.10
2019-05-22T09:25:28.110Z,51.60
2019-05-22T09:27:58.675Z,49.40
2019-05-22T09:30:29.410Z,48.70
2019-05-22T09:33:00.590Z,49.40
2019-05-22T09:35:31.330Z,47.70
2019-05-22T09:38:02.552Z,47.10
2019-05-22T09:40:33.370Z,46.30
2019-05-22T09:43:05.282Z,43.90
2019-05-22T09:45:37.873Z,42.90
2019-05-22T09:48:09.022Z,45.70
2019-05-22T09:50:39.766Z,46.90
2019-05-22T09:53:10.834Z,46.40
2019-05-22T09:55:41.973Z,46.20
2019-05-22T09:58:12.491Z,48.10
2019-05-22T10:00:42.929Z,47.30
2019-05-22T10:03:13.458Z,46.60
2019-05-22T10:05:44.669Z,48.10
2019-05-22T10:08:15.773Z,46.30
2019-05-22T10:10:47.302Z,44.80
2019-05-22T10:13:17.837Z,42.90
2019-05-22T10:15:48.667Z,41.90
2019-05-22T10:18:19.708Z,41.60
2019-05-22T10:20:50.412Z,42.00
2019-05-22T10:23:21.044Z,42.60
2019-05-22T10:25:53.069Z,42.10
2019-05-22T10:28:23.774Z,42.40
2019-05-22T10:30:55.842Z,39.90
2019-05-22T10:33:27.444Z,40.90
2019-05-22T10:35:58.072Z,41.00
2019-05-22T10:38:28.801Z,42.80
2019-05-22T10:40:59.858Z,44.20
2019-05-22T10:43:30.896Z,44.00
2019-05-22T10:46:01.601Z,44.90
2019-05-22T10:48:32.462Z,44.10
2019-05-22T10:51:02.939Z,41.00
2019-05-22T10:53:34.518Z,42.60
2019-05-22T10:56:05.336Z,43.90
2019-05-22T10:58:36.166Z,44.30
2019-05-22T11:01:06.991Z,42.50
2019-05-22T11:03:38.254Z,40.40
2019-05-22T11:06:08.894Z,38.00
2019-05-22T11:08:40.067Z,36.70
2019-05-22T11:11:11.062Z,36.00
2019-05-22T11:13:57.915Z,36.90
2019-05-22T11:16:14.606Z,38.00
2019-05-22T11:18:45.314Z,37.40
2019-05-22T11:21:16.405Z,36.30
2019-05-22T11:23:52.424Z,39.80
2019-05-22T11:26:19.258Z,41.10
2019-05-22T11:28:50.059Z,38.30
2019-05-22T11:31:21.026Z,38.00
2019-05-22T11:33:51.669Z,38.90
2019-05-22T11:36:22.135Z,39.60
2019-05-22T11:38:52.982Z,41.30
2019-05-22T11:41:23.666Z,44.10
2019-05-22T11:43:54.295Z,45.80
2019-05-22T11:46:25.222Z,44.00
2019-05-22T11:48:55.762Z,43.90
2019-05-22T11:51:26.343Z,44.70
2019-05-22T11:54:08.886Z,43.00
2019-05-22T11:56:28.992Z,42.10
2019-05-22T11:58:59.518Z,38.80
2019-05-22T12:01:30.252Z,38.50
2019-05-22T12:04:01.293Z,40.60
2019-05-22T12:06:32.337Z,40.80
2019-05-22T12:09:05.017Z,37.40
2019-05-22T12:11:37.087Z,36.00
2019-05-22T12:14:09.193Z,33.60
2019-05-22T12:16:41.794Z,32.20
2019-05-22T12:19:13.039Z,34.90
2019-05-22T12:21:43.603Z,38.40
2019-05-22T12:24:27.054Z,41.00
2019-05-22T12:26:46.709Z,41.40
2019-05-22T12:29:17.938Z,42.80
2019-05-22T12:31:49.351Z,38.80
2019-05-22T12:34:20.550Z,35.70
2019-05-22T12:36:51.691Z,36.70
2019-05-22T12:39:23.452Z,35.50
2019-05-22T12:41:54.659Z,34.90
2019-05-22T12:44:25.834Z,33.30
2019-05-22T12:46:56.571Z,34.70
2019-05-22T12:49:28.015Z,38.30
2019-05-22T12:51:58.966Z,41.80
2019-05-22T12:54:45.102Z,39.80
2019-05-22T12:57:04.960Z,36.90
2019-05-22T12:59:36.268Z,36.90
2019-05-22T13:02:07.491Z,34.60
2019-05-22T13:04:38.295Z,33.30
2019-05-22T13:07:09.888Z,33.40
2019-05-22T13:09:40.351Z,32.30
2019-05-22T13:12:12.880Z,34.50
2019-05-22T13:14:44.408Z,35.40
2019-05-22T13:17:15.819Z,33.60
2019-05-22T13:19:48.555Z,34.30
2019-05-22T13:22:23.096Z,34.90
2019-05-22T13:24:53.823Z,36.90
2019-05-22T13:27:24.613Z,37.60
2019-05-22T13:29:56.629Z,37.50
2019-05-22T13:32:28.633Z,37.00
2019-05-22T13:34:59.366Z,37.50
2019-05-22T13:37:31.271Z,37.50
2019-05-22T13:40:02.113Z,35.80
2019-05-22T13:42:32.888Z,35.70
2019-05-22T13:45:05.055Z,36.20
2019-05-22T13:47:36.101Z,36.10
2019-05-22T13:50:09.419Z,38.30
2019-05-22T13:52:43.705Z,42.00
2019-05-22T13:55:14.773Z,43.90
2019-05-22T13:57:45.199Z,46.80
2019-05-22T14:00:19.762Z,48.20
2019-05-22T14:02:50.470Z,50.00
2019-05-22T14:05:21.699Z,51.50
2019-05-22T14:07:52.295Z,51.50
2019-05-22T14:10:27.099Z,51.00
2019-05-22T14:12:58.205Z,48.60
2019-05-22T14:15:47.317Z,44.80
2019-05-22T14:18:01.610Z,43.50
2019-05-22T14:20:32.038Z,45.00
2019-05-22T14:23:02.465Z,45.60
2019-05-22T14:25:34.103Z,46.60
2019-05-22T14:28:05.791Z,47.50
2019-05-22T14:30:36.716Z,49.60
2019-05-22T14:33:07.348Z,50.90
2019-05-22T14:35:48.469Z,53.20
2019-05-22T14:38:12.834Z,53.70
2019-05-22T14:40:43.790Z,51.60
2019-05-22T14:43:14.900Z,50.20
2019-05-22T14:45:45.756Z,45.20
2019-05-22T14:48:17.083Z,45.50
2019-05-22T14:50:47.912Z,46.50
2019-05-22T14:53:18.751Z,48.40
2019-05-22T14:55:50.155Z,50.90
2019-05-22T14:58:20.986Z,54.20
2019-05-22T15:00:52.554Z,56.40
2019-05-22T15:03:23.414Z,57.20
2019-05-22T15:05:54.659Z,56.00
2019-05-22T15:08:25.382Z,53.30
2019-05-22T15:10:56.439Z,51.90
2019-05-22T15:13:27.590Z,49.60
2019-05-22T15:15:58.520Z,47.40
2019-05-22T15:18:29.375Z,47.90
2019-05-22T15:21:02.641Z,48.40
2019-05-22T15:23:34.932Z,50.50
2019-05-22T15:26:05.463Z,51.60
2019-05-22T15:28:36.594Z,51.40
2019-05-22T15:31:07.469Z,51.10
2019-05-22T15:33:39.711Z,52.00
2019-05-22T15:36:12.607Z,52.60
2019-05-22T15:38:45.270Z,53.70
2019-05-22T15:41:16.474Z,55.10
2019-05-22T15:43:52.706Z,56.10
2019-05-22T15:46:20.864Z,58.90
2019-05-22T15:48:53.846Z,58.60
2019-05-22T15:51:28.102Z,59.70
2019-05-22T15:54:01.393Z,62.50
2019-05-22T15:56:35.307Z,64.20
2019-05-22T15:59:08.864Z,66.80
2019-05-22T16:01:40.155Z,69.10
2019-05-22T16:04:12.686Z,69.90
2019-05-22T16:06:44.348Z,70.50
2019-05-22T16:09:17.536Z,71.50
2019-05-22T16:11:51.920Z,72.50
2019-05-22T16:14:25.344Z,73.20
2019-05-22T16:16:56.888Z,73.10
2019-05-22T16:19:29.278Z,74.70
2019-05-22T16:22:03.632Z,73.40
2019-05-22T16:24:36.159Z,73.80
2019-05-22T16:27:08.550Z,77.50
2019-05-22T16:29:40.268Z,80.50
2019-05-22T16:32:12.299Z,82.90
2019-05-22T16:34:42.798Z,85.00
2019-05-22T16:37:14.232Z,83.90
2019-05-22T16:39:44.820Z,84.30
2019-05-22T16:42:15.451Z,85.40
2019-05-22T16:44:46.524Z,85.20
2019-05-22T16:47:18.694Z,86.50
2019-05-22T16:49:51.523Z,86.00
2019-05-22T16:52:23.983Z,85.40
2019-05-22T16:54:54.816Z,86.40
2019-05-22T16:57:27.835Z,85.80
2019-05-22T17:00:00.460Z,86.10
2019-05-22T17:02:33.737Z,86.20
2019-05-22T17:05:05.194Z,84.20
2019-05-22T17:07:36.575Z,85.60
2019-05-22T17:10:07.566Z,86.10
2019-05-22T17:12:39.316Z,87.60
2019-05-22T17:15:14.637Z,88.80
2019-05-22T17:17:46.475Z,89.80
2019-05-22T17:20:20.999Z,88.10
2019-05-22T17:22:51.949Z,89.40
2019-05-22T17:25:22.574Z,89.10
2019-05-22T17:27:53.101Z,90.10
2019-05-22T17:30:25.257Z,89.70
2019-05-22T17:32:57.329Z,90.00
2019-05-22T17:35:28.269Z,79.40
2019-05-22T17:37:59.387Z,74.40
2019-05-22T17:40:30.802Z,71.80
2019-05-22T17:43:02.735Z,70.60
2019-05-22T17:45:35.610Z,70.70
2019-05-22T17:48:06.957Z,71.20
2019-05-22T17:50:38.377Z,70.80
2019-05-22T17:53:09.451Z,71.10
2019-05-22T17:55:40.492Z,71.10
2019-05-22T17:58:11.784Z,70.60
2019-05-22T18:00:46.158Z,71.60
2019-05-22T18:03:17.044Z,72.60
2019-05-22T18:05:47.845Z,73.30
2019-05-22T18:08:18.599Z,73.00
2019-05-22T18:10:51.143Z,71.90
2019-05-22T18:13:22.378Z,72.20
2019-05-22T18:15:52.816Z,72.80
2019-05-22T18:18:23.347Z,73.10
2019-05-22T18:20:54.759Z,73.20
2019-05-22T18:23:25.459Z,72.80
2019-05-22T18:25:55.842Z,73.40
2019-05-22T18:28:27.079Z,73.70
2019-05-22T18:30:57.529Z,74.10
2019-05-22T18:33:28.050Z,74.40
2019-05-22T18:35:58.612Z,74.20
2019-05-22T18:38:29.116Z,74.50
2019-05-22T18:40:59.779Z,75.90
2019-05-22T18:43:51.207Z,77.00
2019-05-22T18:46:21.866Z,77.40
2019-05-22T18:48:52.564Z,78.00
2019-05-22T18:51:23.475Z,78.80
2019-05-22T18:53:53.896Z,80.00
2019-05-22T18:56:24.661Z,81.10
2019-05-22T18:58:55.884Z,82.00
2019-05-22T19:01:26.410Z,83.10
2019-05-22T19:03:57.154Z,84.80
2019-05-22T19:06:30.716Z,85.90
2019-05-22T19:09:00.151Z,87.70
2019-05-22T19:11:30.782Z,88.40
2019-05-22T19:14:01.207Z,90.00
2019-05-22T19:16:31.963Z,90.50
2019-05-22T19:19:02.495Z,90.80
2019-05-22T19:21:33.151Z,91.30
2019-05-22T19:24:04.176Z,91.70
2019-05-22T19:26:34.980Z,92.10
2019-05-22T19:29:06.042Z,92.40
2019-05-22T19:31:36.723Z,93.00
2019-05-22T19:34:07.880Z,93.50
2019-05-22T19:36:38.325Z,94.20
2019-05-22T19:39:10.132Z,94.70
2019-05-22T19:41:41.074Z,95.20
2019-05-22T19:44:12.691Z,95.80
2019-05-22T19:46:43.209Z,96.50
2019-05-22T19:49:14.114Z,97.00
2019-05-22T19:51:45.503Z,97.70
2019-05-22T19:54:16.641Z,98.30
2019-05-22T19:56:47.959Z,98.70
2019-05-22T19:59:19.086Z,99.20
2019-05-22T20:01:50.366Z,99.90
2019-05-22T20:04:21.319Z,99.90
2019-05-22T20:06:52.274Z,99.90
2019-05-22T20:09:23.098Z,99.90
2019-05-22T20:11:54.409Z,99.90
2019-05-22T20:14:26.206Z,99.90
2019-05-22T20:16:56.834Z,99.90
2019-05-22T20:19:27.668Z,99.90
2019-05-22T20:22:00.471Z,99.90
2019-05-22T20:24:30.369Z,99.90
2019-05-22T20:27:00.894Z,99.90
2019-05-22T20:29:31.530Z,99.90
2019-05-22T20:32:02.057Z,99.90
2019-05-22T20:34:32.788Z,99.90
2019-05-22T20:37:03.932Z,99.90
2019-05-22T20:39:36.279Z,99.90
2019-05-22T20:42:07.771Z,99.90
2019-05-22T20:44:40.037Z,99.90
2019-05-22T20:47:11.354Z,99.90
2019-05-22T20:49:43.960Z,99.90
2019-05-22T20:52:14.692Z,99.90
2019-05-22T20:54:45.218Z,99.90
2019-05-22T20:57:19.570Z,99.90
2019-05-22T20:59:48.633Z,99.90
2019-05-22T21:02:20.832Z,99.90
2019-05-22T21:04:53.959Z,99.90
2019-05-22T21:07:31.585Z,99.90
2019-05-22T21:10:03.947Z,99.90
2019-05-22T21:12:36.380Z,99.90
2019-05-22T21:15:08.646Z,99.90
2019-05-22T21:17:40.690Z,99.90
2019-05-22T21:20:13.796Z,99.90
2019-05-22T21:22:45.976Z,99.90
2019-05-22T21:25:17.565Z,99.90
2019-05-22T21:27:49.232Z,99.90
2019-05-22T21:30:20.879Z,99.90
2019-05-22T21:32:51.315Z,99.90
2019-05-22T21:35:22.792Z,99.90
2019-05-22T21:37:54.116Z,99.90
2019-05-22T21:40:25.421Z,99.90
2019-05-22T21:42:56.431Z,99.90
2019-05-22T21:45:27.794Z,99.90
2019-05-22T21:47:58.289Z,99.90
2019-05-22T21:50:31.318Z,99.90
2019-05-22T21:53:02.514Z,99.90
2019-05-22T21:55:33.451Z,99.90
2019-05-22T21:58:04.796Z,99.90
2019-05-22T22:00:59.934Z,99.90
2019-05-22T22:03:35.146Z,99.90
2019-05-22T22:06:06.571Z,99.90
2019-05-22T22:08:37.331Z,99.90
2019-05-22T22:11:08.913Z,99.90
2019-05-22T22:13:39.722Z,99.90
2019-05-22T22:16:11.276Z,99.90
2019-05-22T22:18:41.875Z,99.90
2019-05-22T22:21:13.757Z,99.90
2019-05-22T22:23:44.755Z,99.90
2019-05-22T22:26:25.312Z,99.90
2019-05-22T22:28:48.429Z,99.90
2019-05-22T22:31:22.027Z,99.90
2019-05-22T22:33:57.270Z,99.90
2019-05-22T22:41:28.220Z,99.90
2019-05-22T22:43:59.341Z,99.90
2019-05-22T22:46:49.064Z,99.90
2019-05-22T22:49:21.643Z,99.90
2019-05-22T22:51:53.373Z,99.90
2019-05-22T22:54:24.831Z,99.90
2019-05-22T22:56:55.780Z,99.90
2019-05-22T22:59:26.718Z,99.90
2019-05-22T23:01:59.964Z,99.90
2019-05-22T23:04:30.966Z,99.90
2019-05-22T23:07:07.978Z,99.90
2019-05-22T23:09:44.342Z,99.90
2019-05-22T23:12:16.887Z,99.90
2019-05-22T23:14:53.425Z,99.90
2019-05-22T23:17:25.806Z,99.90
2019-05-22T23:19:55.274Z,99.90
2019-05-22T23:22:24.987Z,99.90
2019-05-22T23:24:57.988Z,99.90
2019-05-22T23:27:29.367Z,99.90
2019-05-22T23:30:00.617Z,99.90
2019-05-22T23:32:31.771Z,99.90
2019-05-22T23:35:03.310Z,99.90
2019-05-22T23:37:34.363Z,99.90
2019-05-22T23:40:06.742Z,99.90
2019-05-22T23:42:41.655Z,99.90
2019-05-22T23:45:15.433Z,99.90
2019-05-22T23:48:09.261Z,99.90
2019-05-22T23:50:41.931Z,99.90
2019-05-22T23:53:13.706Z,99.90
2019-05-22T23:55:46.161Z,99.90
2019-05-22T23:58:20.292Z,99.90
